sensor_id;sensor_type;location;lat;lon;timestamp;pressure;altitude;pressure_sealevel;temperature;humidity
19761;BME280;10039;42.632;23.408;2023-06-14T00:00:10;94675.00;;;18.10;83.43
19761;BME280;10039;42.632;23.408;2023-06-14T00:02:38;94700.75;;;18.35;83.32
19761;BME280;10039;42.632;23.408;2023-06-14T00:05:05;94693.09;;;18.33;83.25
19761;BME280;10039;42.632;23.408;2023-06-14T00:07:38;94694.59;;;18.34;83.48
19761;BME280;10039;42.632;23.408;2023-06-14T00:10:08;94685.66;;;18.28;83.34
19761;BME280;10039;42.632;23.408;2023-06-14T00:12:34;94689.75;;;18.38;83.04
19761;BME280;10039;42.632;23.408;2023-06-14T00:15:00;94697.00;;;18.32;83.58
19761;BME280;10039;42.632;23.408;2023-06-14T00:17:29;94692.16;;;18.36;83.24
19761;BME280;10039;42.632;23.408;2023-06-14T00:19:59;94658.72;;;18.19;82.88
19761;BME280;10039;42.632;23.408;2023-06-14T00:22:25;94681.91;;;18.40;82.79
19761;BME280;10039;42.632;23.408;2023-06-14T00:24:51;94687.16;;;18.44;82.98
19761;BME280;10039;42.632;23.408;2023-06-14T00:27:17;94675.03;;;18.39;82.67
19761;BME280;10039;42.632;23.408;2023-06-14T00:29:42;94669.06;;;18.35;83.02
19761;BME280;10039;42.632;23.408;2023-06-14T00:32:08;94675.28;;;18.41;82.73
19761;BME280;10039;42.632;23.408;2023-06-14T00:34:34;94679.03;;;18.44;82.62
19761;BME280;10039;42.632;23.408;2023-06-14T00:36:59;94683.97;;;18.45;82.53
19761;BME280;10039;42.632;23.408;2023-06-14T00:39:25;94670.94;;;18.44;82.48
19761;BME280;10039;42.632;23.408;2023-06-14T00:41:50;94656.56;;;18.23;83.65
19761;BME280;10039;42.632;23.408;2023-06-14T00:44:17;94665.13;;;18.36;83.24
19761;BME280;10039;42.632;23.408;2023-06-14T00:46:45;94644.63;;;18.15;82.81
19761;BME280;10039;42.632;23.408;2023-06-14T00:49:12;94666.25;;;18.44;82.35
19761;BME280;10039;42.632;23.408;2023-06-14T00:51:40;94667.66;;;18.40;82.28
19761;BME280;10039;42.632;23.408;2023-06-14T00:54:06;94665.31;;;18.47;81.92
19761;BME280;10039;42.632;23.408;2023-06-14T00:56:31;94635.88;;;18.20;82.25
19761;BME280;10039;42.632;23.408;2023-06-14T00:58:57;94666.81;;;18.48;82.25
19761;BME280;10039;42.632;23.408;2023-06-14T01:01:23;94662.34;;;18.45;81.86
19761;BME280;10039;42.632;23.408;2023-06-14T01:03:49;94659.09;;;18.41;81.75
19761;BME280;10039;42.632;23.408;2023-06-14T01:06:40;94670.72;;;18.47;81.94
19761;BME280;10039;42.632;23.408;2023-06-14T01:09:27;94661.78;;;18.41;82.25
19761;BME280;10039;42.632;23.408;2023-06-14T01:12:23;94665.69;;;18.40;82.33
19761;BME280;10039;42.632;23.408;2023-06-14T01:14:50;94653.03;;;18.32;82.20
19761;BME280;10039;42.632;23.408;2023-06-14T01:17:18;94664.75;;;18.43;82.42
19761;BME280;10039;42.632;23.408;2023-06-14T01:19:44;94666.81;;;18.48;82.48
19761;BME280;10039;42.632;23.408;2023-06-14T01:22:11;94667.75;;;18.45;82.05
19761;BME280;10039;42.632;23.408;2023-06-14T01:24:36;94654.34;;;18.36;82.54
19761;BME280;10039;42.632;23.408;2023-06-14T01:27:05;94658.81;;;18.39;81.79
19761;BME280;10039;42.632;23.408;2023-06-14T01:29:33;94666.25;;;18.44;82.03
19761;BME280;10039;42.632;23.408;2023-06-14T01:32:01;94661.59;;;18.45;81.67
19761;BME280;10039;42.632;23.408;2023-06-14T01:34:27;94658.16;;;18.44;81.52
19761;BME280;10039;42.632;23.408;2023-06-14T01:36:53;94659.84;;;18.42;81.73
19761;BME280;10039;42.632;23.408;2023-06-14T01:39:21;94634.94;;;18.23;81.85
19761;BME280;10039;42.632;23.408;2023-06-14T01:41:48;94668.78;;;18.48;81.31
19761;BME280;10039;42.632;23.408;2023-06-14T01:44:15;94660.28;;;18.55;81.20
19761;BME280;10039;42.632;23.408;2023-06-14T01:46:42;94660.28;;;18.55;81.26
19761;BME280;10039;42.632;23.408;2023-06-14T01:49:08;94664.19;;;18.54;81.57
19761;BME280;10039;42.632;23.408;2023-06-14T01:51:34;94634.41;;;18.34;81.32
19761;BME280;10039;42.632;23.408;2023-06-14T01:54:00;94661.22;;;18.52;81.78
19761;BME280;10039;42.632;23.408;2023-06-14T01:56:26;94652.00;;;18.44;82.43
19761;BME280;10039;42.632;23.408;2023-06-14T01:58:52;94654.06;;;18.34;82.69
19761;BME280;10039;42.632;23.408;2023-06-14T02:01:19;94651.06;;;18.32;83.04
19761;BME280;10039;42.632;23.408;2023-06-14T02:03:46;94648.56;;;18.14;83.93
19761;BME280;10039;42.632;23.408;2023-06-14T02:06:13;94664.06;;;18.28;82.91
19761;BME280;10039;42.632;23.408;2023-06-14T02:08:41;94667.75;;;18.31;82.65
19761;BME280;10039;42.632;23.408;2023-06-14T02:11:06;94672.97;;;18.34;82.78
19761;BME280;10039;42.632;23.408;2023-06-14T02:13:32;94682.56;;;18.35;82.31
19761;BME280;10039;42.632;23.408;2023-06-14T02:15:57;94680.78;;;18.32;82.67
19761;BME280;10039;42.632;23.408;2023-06-14T02:18:24;94665.31;;;18.18;82.63
19761;BME280;10039;42.632;23.408;2023-06-14T02:20:50;94688.66;;;18.30;82.69
19761;BME280;10039;42.632;23.408;2023-06-14T02:23:15;94679.13;;;18.35;81.86
19761;BME280;10039;42.632;23.408;2023-06-14T02:25:41;94668.97;;;18.30;81.66
19761;BME280;10039;42.632;23.408;2023-06-14T02:28:08;94683.97;;;18.45;81.21
19761;BME280;10039;42.632;23.408;2023-06-14T02:30:33;94694.22;;;18.41;81.35
19761;BME280;10039;42.632;23.408;2023-06-14T02:32:59;94690.94;;;18.37;81.79
19761;BME280;10039;42.632;23.408;2023-06-14T02:35:24;94691.59;;;18.32;82.75
19761;BME280;10039;42.632;23.408;2023-06-14T02:37:52;94681.34;;;18.22;83.07
19761;BME280;10039;42.632;23.408;2023-06-14T02:40:18;94682.69;;;18.26;83.23
19761;BME280;10039;42.632;23.408;2023-06-14T02:42:43;94681.19;;;18.25;83.77
19761;BME280;10039;42.632;23.408;2023-06-14T02:45:09;94662.78;;;18.00;83.53
19761;BME280;10039;42.632;23.408;2023-06-14T02:47:35;94682.97;;;18.28;82.86
19761;BME280;10039;42.632;23.408;2023-06-14T02:50:01;94679.41;;;18.22;83.30
19761;BME280;10039;42.632;23.408;2023-06-14T02:52:26;94692.66;;;18.35;82.80
19761;BME280;10039;42.632;23.408;2023-06-14T02:54:51;94690.69;;;18.35;83.03
19761;BME280;10039;42.632;23.408;2023-06-14T02:57:17;94691.06;;;18.28;83.19
19761;BME280;10039;42.632;23.408;2023-06-14T02:59:42;94694.97;;;18.27;83.02
19761;BME280;10039;42.632;23.408;2023-06-14T03:02:08;94696.94;;;18.27;83.22
19761;BME280;10039;42.632;23.408;2023-06-14T03:04:33;94691.41;;;18.21;83.62
19761;BME280;10039;42.632;23.408;2023-06-14T03:07:02;94696.56;;;18.34;83.33
19761;BME280;10039;42.632;23.408;2023-06-14T03:09:34;94679.69;;;18.24;82.85
19761;BME280;10039;42.632;23.408;2023-06-14T03:12:00;94705.22;;;18.38;82.79
19761;BME280;10039;42.632;23.408;2023-06-14T03:14:26;94699.81;;;18.38;82.71
19761;BME280;10039;42.632;23.408;2023-06-14T03:16:51;94694.59;;;18.34;83.33
19761;BME280;10039;42.632;23.408;2023-06-14T03:19:24;94703.81;;;18.42;82.72
19761;BME280;10039;42.632;23.408;2023-06-14T03:21:51;94681.34;;;18.22;82.32
19761;BME280;10039;42.632;23.408;2023-06-14T03:24:17;94713.25;;;18.47;82.96
19761;BME280;10039;42.632;23.408;2023-06-14T03:26:43;94709.59;;;18.50;82.45
19761;BME280;10039;42.632;23.408;2023-06-14T03:29:08;94681.75;;;18.29;82.09
19761;BME280;10039;42.632;23.408;2023-06-14T03:31:34;94701.41;;;18.44;82.73
19761;BME280;10039;42.632;23.408;2023-06-14T03:34:01;94713.13;;;18.56;82.41
19761;BME280;10039;42.632;23.408;2023-06-14T03:36:27;94712.47;;;18.61;81.56
19761;BME280;10039;42.632;23.408;2023-06-14T03:38:53;94710.97;;;18.60;81.66
19761;BME280;10039;42.632;23.408;2023-06-14T03:41:19;94703.06;;;18.56;82.22
19761;BME280;10039;42.632;23.408;2023-06-14T03:43:45;94697.75;;;18.47;82.33
19761;BME280;10039;42.632;23.408;2023-06-14T03:46:10;94677.00;;;18.39;81.81
19761;BME280;10039;42.632;23.408;2023-06-14T03:48:35;94678.94;;;18.38;81.96
19761;BME280;10039;42.632;23.408;2023-06-14T03:51:01;94714.53;;;18.51;82.03
19761;BME280;10039;42.632;23.408;2023-06-14T03:53:27;94709.69;;;18.55;82.62
19761;BME280;10039;42.632;23.408;2023-06-14T03:55:54;94718.06;;;18.57;82.27
19761;BME280;10039;42.632;23.408;2023-06-14T03:58:19;94693.75;;;18.43;83.10
19761;BME280;10039;42.632;23.408;2023-06-14T04:00:45;94726.19;;;18.57;83.08
19761;BME280;10039;42.632;23.408;2023-06-14T04:03:11;94706.88;;;18.50;83.11
19761;BME280;10039;42.632;23.408;2023-06-14T04:05:38;94724.97;;;18.58;82.94
19761;BME280;10039;42.632;23.408;2023-06-14T04:08:08;94723.94;;;18.56;83.01
19761;BME280;10039;42.632;23.408;2023-06-14T04:10:34;94720.31;;;18.59;82.47
19761;BME280;10039;42.632;23.408;2023-06-14T04:13:00;94721.06;;;18.59;82.75
19761;BME280;10039;42.632;23.408;2023-06-14T04:15:25;94727.75;;;18.64;82.65
19761;BME280;10039;42.632;23.408;2023-06-14T04:17:53;94730.25;;;18.67;82.57
19761;BME280;10039;42.632;23.408;2023-06-14T04:20:22;94726.63;;;18.70;82.28
19761;BME280;10039;42.632;23.408;2023-06-14T04:22:49;94730.16;;;18.76;82.12
19761;BME280;10039;42.632;23.408;2023-06-14T04:25:15;94716.19;;;18.78;81.74
19761;BME280;10039;42.632;23.408;2023-06-14T04:27:40;94720.47;;;18.84;81.15
19761;BME280;10039;42.632;23.408;2023-06-14T04:30:07;94720.84;;;18.77;82.01
19761;BME280;10039;42.632;23.408;2023-06-14T04:32:32;94709.31;;;18.62;82.49
19761;BME280;10039;42.632;23.408;2023-06-14T04:35:08;94722.50;;;18.89;82.04
19761;BME280;10039;42.632;23.408;2023-06-14T04:37:33;94728.75;;;18.95;81.65
19761;BME280;10039;42.632;23.408;2023-06-14T04:40:00;94722.22;;;18.87;82.19
19761;BME280;10039;42.632;23.408;2023-06-14T04:42:25;94718.59;;;18.90;81.72
19761;BME280;10039;42.632;23.408;2023-06-14T04:44:56;94727.59;;;19.02;81.74
19761;BME280;10039;42.632;23.408;2023-06-14T04:47:22;94729.16;;;19.08;81.29
19761;BME280;10039;42.632;23.408;2023-06-14T04:49:50;94724.31;;;19.12;81.67
19761;BME280;10039;42.632;23.408;2023-06-14T04:52:18;94719.47;;;19.16;81.50
19761;BME280;10039;42.632;23.408;2023-06-14T04:54:46;94726.25;;;19.26;81.28
19761;BME280;10039;42.632;23.408;2023-06-14T04:57:11;94734.78;;;19.39;81.08
19761;BME280;10039;42.632;23.408;2023-06-14T04:59:45;94735.44;;;19.34;80.69
19761;BME280;10039;42.632;23.408;2023-06-14T05:02:11;94737.50;;;19.39;80.65
19761;BME280;10039;42.632;23.408;2023-06-14T05:04:37;94744.94;;;19.44;80.83
19761;BME280;10039;42.632;23.408;2023-06-14T05:07:08;94726.00;;;19.24;80.63
19761;BME280;10039;42.632;23.408;2023-06-14T05:09:37;94724.88;;;19.16;80.81
19761;BME280;10039;42.632;23.408;2023-06-14T05:12:03;94745.28;;;19.31;80.61
19761;BME280;10039;42.632;23.408;2023-06-14T05:14:29;94743.78;;;19.30;80.97
19761;BME280;10039;42.632;23.408;2023-06-14T05:16:54;94740.13;;;19.33;79.96
19761;BME280;10039;42.632;23.408;2023-06-14T05:19:19;94742.25;;;19.10;79.40
19761;BME280;10039;42.632;23.408;2023-06-14T05:21:46;94751.19;;;19.01;80.30
19761;BME280;10039;42.632;23.408;2023-06-14T05:24:13;94759.59;;;19.17;80.43
19761;BME280;10039;42.632;23.408;2023-06-14T05:26:38;94748.75;;;19.17;80.16
19761;BME280;10039;42.632;23.408;2023-06-14T05:29:04;94748.16;;;19.28;80.64
19761;BME280;10039;42.632;23.408;2023-06-14T05:31:29;94764.63;;;19.44;80.73
19761;BME280;10039;42.632;23.408;2023-06-14T05:33:55;94770.97;;;19.56;80.27
19761;BME280;10039;42.632;23.408;2023-06-14T05:36:20;94766.22;;;19.51;79.67
19761;BME280;10039;42.632;23.408;2023-06-14T05:38:48;94757.59;;;19.52;79.23
19761;BME280;10039;42.632;23.408;2023-06-14T05:41:14;94766.28;;;19.76;79.67
19761;BME280;10039;42.632;23.408;2023-06-14T05:43:39;94738.78;;;19.83;79.02
19761;BME280;10039;42.632;23.408;2023-06-14T05:46:05;94770.41;;;20.12;78.33
19761;BME280;10039;42.632;23.408;2023-06-14T05:48:31;94723.22;;;19.98;76.88
19761;BME280;10039;42.632;23.408;2023-06-14T05:50:56;94772.59;;;19.88;76.51
19761;BME280;10039;42.632;23.408;2023-06-14T05:53:22;94774.75;;;20.04;76.70
19761;BME280;10039;42.632;23.408;2023-06-14T05:55:48;94767.84;;;20.03;77.52
19761;BME280;10039;42.632;23.408;2023-06-14T05:58:14;94765.81;;;20.18;77.70
19761;BME280;10039;42.632;23.408;2023-06-14T06:00:39;94763.63;;;20.22;76.63
19761;BME280;10039;42.632;23.408;2023-06-14T06:03:05;94765.13;;;20.23;76.34
19761;BME280;10039;42.632;23.408;2023-06-14T06:05:33;94771.41;;;20.34;76.04
19761;BME280;10039;42.632;23.408;2023-06-14T06:08:00;94775.38;;;20.38;75.86
19761;BME280;10039;42.632;23.408;2023-06-14T06:10:25;94772.34;;;20.31;74.58
19761;BME280;10039;42.632;23.408;2023-06-14T06:12:51;94764.94;;;20.32;75.17
19761;BME280;10039;42.632;23.408;2023-06-14T06:15:17;94766.28;;;20.41;74.84
19761;BME280;10039;42.632;23.408;2023-06-14T06:17:44;94778.03;;;20.33;73.48
19761;BME280;10039;42.632;23.408;2023-06-14T06:20:10;94785.59;;;20.04;75.25
19761;BME280;10039;42.632;23.408;2023-06-14T06:22:36;94777.34;;;20.13;76.21
19761;BME280;10039;42.632;23.408;2023-06-14T06:25:02;94779.41;;;20.23;75.42
19761;BME280;10039;42.632;23.408;2023-06-14T06:27:28;94778.41;;;20.21;75.21
19761;BME280;10039;42.632;23.408;2023-06-14T06:29:53;94786.44;;;20.35;75.62
19761;BME280;10039;42.632;23.408;2023-06-14T06:32:19;94780.69;;;20.28;74.59
19761;BME280;10039;42.632;23.408;2023-06-14T06:34:44;94783.25;;;20.36;74.73
19761;BME280;10039;42.632;23.408;2023-06-14T06:37:10;94783.47;;;20.13;73.41
19761;BME280;10039;42.632;23.408;2023-06-14T06:39:35;94773.31;;;20.28;74.78
19761;BME280;10039;42.632;23.408;2023-06-14T06:42:01;94793.00;;;20.48;75.05
19761;BME280;10039;42.632;23.408;2023-06-14T06:44:26;94792.03;;;20.51;73.97
19761;BME280;10039;42.632;23.408;2023-06-14T06:46:52;94797.00;;;20.58;73.86
19761;BME280;10039;42.632;23.408;2023-06-14T06:49:17;94803.31;;;20.70;73.47
19761;BME280;10039;42.632;23.408;2023-06-14T06:51:43;94788.69;;;20.62;73.48
19761;BME280;10039;42.632;23.408;2023-06-14T06:54:10;94789.69;;;20.64;73.34
19761;BME280;10039;42.632;23.408;2023-06-14T06:56:35;94788.63;;;20.82;74.17
19761;BME280;10039;42.632;23.408;2023-06-14T06:59:01;94790.16;;;20.88;72.79
19761;BME280;10039;42.632;23.408;2023-06-14T07:01:27;94794.38;;;20.89;72.62
19761;BME280;10039;42.632;23.408;2023-06-14T07:03:54;94786.06;;;20.73;72.82
19761;BME280;10039;42.632;23.408;2023-06-14T07:06:20;94778.88;;;20.95;73.06
19761;BME280;10039;42.632;23.408;2023-06-14T07:08:46;94799.03;;;20.83;71.83
19761;BME280;10039;42.632;23.408;2023-06-14T07:11:13;94789.69;;;20.64;71.55
19761;BME280;10039;42.632;23.408;2023-06-14T07:13:39;94793.31;;;20.81;71.48
19761;BME280;10039;42.632;23.408;2023-06-14T07:16:05;94787.06;;;20.75;72.13
19761;BME280;10039;42.632;23.408;2023-06-14T07:18:31;94792.44;;;20.95;71.89
19761;BME280;10039;42.632;23.408;2023-06-14T07:20:56;94797.00;;;21.09;71.88
19761;BME280;10039;42.632;23.408;2023-06-14T07:23:23;94791.00;;;21.31;71.30
19761;BME280;10039;42.632;23.408;2023-06-14T07:25:48;94786.38;;;21.42;69.99
19761;BME280;10039;42.632;23.408;2023-06-14T07:28:16;94787.53;;;21.66;70.04
19761;BME280;10039;42.632;23.408;2023-06-14T07:30:42;94749.59;;;21.47;68.77
19761;BME280;10039;42.632;23.408;2023-06-14T07:33:07;94789.50;;;21.66;68.49
19761;BME280;10039;42.632;23.408;2023-06-14T07:35:33;94778.31;;;22.06;68.29
19761;BME280;10039;42.632;23.408;2023-06-14T07:37:59;94771.91;;;22.14;67.21
19761;BME280;10039;42.632;23.408;2023-06-14T07:40:25;94770.97;;;22.34;67.34
19761;BME280;10039;42.632;23.408;2023-06-14T07:42:50;94778.44;;;22.50;67.29
19761;BME280;10039;42.632;23.408;2023-06-14T07:45:15;94780.50;;;22.76;66.48
19761;BME280;10039;42.632;23.408;2023-06-14T07:47:41;94778.25;;;22.86;63.91
19761;BME280;10039;42.632;23.408;2023-06-14T07:50:07;94782.97;;;22.96;62.74
19761;BME280;10039;42.632;23.408;2023-06-14T07:52:32;94787.94;;;23.25;62.61
19761;BME280;10039;42.632;23.408;2023-06-14T07:54:58;94783.00;;;23.07;61.11
19761;BME280;10039;42.632;23.408;2023-06-14T07:57:23;94790.13;;;23.49;62.55
19761;BME280;10039;42.632;23.408;2023-06-14T07:59:49;94795.78;;;23.73;62.29
19761;BME280;10039;42.632;23.408;2023-06-14T08:02:15;94782.91;;;23.68;61.77
19761;BME280;10039;42.632;23.408;2023-06-14T08:04:40;94788.31;;;23.95;62.11
19761;BME280;10039;42.632;23.408;2023-06-14T08:07:07;94797.34;;;23.41;61.75
19761;BME280;10039;42.632;23.408;2023-06-14T08:09:32;94802.28;;;23.48;63.75
19761;BME280;10039;42.632;23.408;2023-06-14T08:11:58;94814.13;;;23.88;62.68
19761;BME280;10039;42.632;23.408;2023-06-14T08:14:23;94818.22;;;24.17;60.61
19761;BME280;10039;42.632;23.408;2023-06-14T08:16:49;94774.06;;;24.24;60.05
19761;BME280;10039;42.632;23.408;2023-06-14T08:19:14;94813.69;;;24.82;58.52
19761;BME280;10039;42.632;23.408;2023-06-14T08:21:42;94808.19;;;25.27;58.81
19761;BME280;10039;42.632;23.408;2023-06-14T08:24:07;94790.63;;;25.47;56.60
19761;BME280;10039;42.632;23.408;2023-06-14T08:26:33;94815.47;;;25.97;55.42
19761;BME280;10039;42.632;23.408;2023-06-14T08:28:58;94792.50;;;25.57;56.28
19761;BME280;10039;42.632;23.408;2023-06-14T08:31:24;94819.19;;;25.16;56.73
19761;BME280;10039;42.632;23.408;2023-06-14T08:33:50;94816.47;;;25.16;57.70
19761;BME280;10039;42.632;23.408;2023-06-14T08:36:16;94810.06;;;25.38;56.67
19761;BME280;10039;42.632;23.408;2023-06-14T08:38:41;94814.31;;;25.33;56.17
19761;BME280;10039;42.632;23.408;2023-06-14T08:41:07;94807.34;;;25.62;55.69
19761;BME280;10039;42.632;23.408;2023-06-14T08:43:36;94802.63;;;26.10;56.02
19761;BME280;10039;42.632;23.408;2023-06-14T08:46:03;94803.00;;;26.62;55.25
19761;BME280;10039;42.632;23.408;2023-06-14T08:48:29;94763.91;;;26.61;52.75
19761;BME280;10039;42.632;23.408;2023-06-14T08:50:59;94794.97;;;27.01;52.95
19761;BME280;10039;42.632;23.408;2023-06-14T08:53:34;94778.69;;;26.90;52.49
19761;BME280;10039;42.632;23.408;2023-06-14T08:56:03;94790.94;;;26.89;53.02
19761;BME280;10039;42.632;23.408;2023-06-14T08:58:33;94768.81;;;26.50;54.28
19761;BME280;10039;42.632;23.408;2023-06-14T09:01:01;94800.84;;;26.92;54.12
19761;BME280;10039;42.632;23.408;2023-06-14T09:03:27;94803.88;;;27.07;53.97
19761;BME280;10039;42.632;23.408;2023-06-14T09:05:58;94793.78;;;27.15;51.40
19761;BME280;10039;42.632;23.408;2023-06-14T09:08:29;94791.31;;;27.42;50.57
19761;BME280;10039;42.632;23.408;2023-06-14T09:10:56;94765.13;;;27.29;50.16
19761;BME280;10039;42.632;23.408;2023-06-14T09:13:22;94764.75;;;27.50;51.18
19761;BME280;10039;42.632;23.408;2023-06-14T09:15:47;94764.66;;;27.12;50.61
19761;BME280;10039;42.632;23.408;2023-06-14T09:18:13;94774.22;;;27.24;50.89
19761;BME280;10039;42.632;23.408;2023-06-14T09:20:38;94755.25;;;27.38;51.12
19761;BME280;10039;42.632;23.408;2023-06-14T09:23:04;94781.19;;;27.95;50.29
19761;BME280;10039;42.632;23.408;2023-06-14T09:25:30;94776.44;;;27.82;49.94
19761;BME280;10039;42.632;23.408;2023-06-14T09:27:56;94776.59;;;27.14;51.04
19761;BME280;10039;42.632;23.408;2023-06-14T09:30:21;94778.72;;;26.71;51.70
19761;BME280;10039;42.632;23.408;2023-06-14T09:32:47;94775.75;;;26.69;51.73
19761;BME280;10039;42.632;23.408;2023-06-14T09:35:17;94776.44;;;26.57;51.58
19761;BME280;10039;42.632;23.408;2023-06-14T09:37:43;94770.44;;;26.58;54.07
19761;BME280;10039;42.632;23.408;2023-06-14T09:40:08;94776.19;;;26.92;53.04
19761;BME280;10039;42.632;23.408;2023-06-14T09:42:35;94772.59;;;26.97;51.92
19761;BME280;10039;42.632;23.408;2023-06-14T09:45:02;94763.84;;;27.17;52.39
19761;BME280;10039;42.632;23.408;2023-06-14T09:47:28;94759.00;;;26.73;51.70
19761;BME280;10039;42.632;23.408;2023-06-14T09:49:54;94758.31;;;26.85;54.14
19761;BME280;10039;42.632;23.408;2023-06-14T09:52:21;94755.59;;;26.85;54.08
19761;BME280;10039;42.632;23.408;2023-06-14T09:54:48;94763.75;;;26.91;52.14
19761;BME280;10039;42.632;23.408;2023-06-14T09:57:20;94765.19;;;27.10;53.12
19761;BME280;10039;42.632;23.408;2023-06-14T09:59:47;94753.31;;;27.34;52.63
19761;BME280;10039;42.632;23.408;2023-06-14T10:02:26;94744.88;;;27.32;51.73
19761;BME280;10039;42.632;23.408;2023-06-14T10:05:04;94739.19;;;27.30;51.29
19761;BME280;10039;42.632;23.408;2023-06-14T10:07:39;94737.91;;;27.18;53.05
19761;BME280;10039;42.632;23.408;2023-06-14T10:10:06;94745.19;;;26.97;52.65
19761;BME280;10039;42.632;23.408;2023-06-14T10:12:32;94748.72;;;26.42;53.07
19761;BME280;10039;42.632;23.408;2023-06-14T10:14:57;94731.78;;;26.62;53.13
19761;BME280;10039;42.632;23.408;2023-06-14T10:17:39;94744.69;;;26.98;53.66
19761;BME280;10039;42.632;23.408;2023-06-14T10:25:31;94722.75;;;26.67;52.57
19761;BME280;10039;42.632;23.408;2023-06-14T10:28:20;94723.88;;;27.21;52.88
19761;BME280;10039;42.632;23.408;2023-06-14T10:31:10;94733.91;;;27.19;51.19
19761;BME280;10039;42.632;23.408;2023-06-14T10:33:39;94736.44;;;27.30;51.53
19761;BME280;10039;42.632;23.408;2023-06-14T10:36:09;94727.16;;;27.33;49.88
19761;BME280;10039;42.632;23.408;2023-06-14T10:38:36;94728.69;;;27.46;50.80
19761;BME280;10039;42.632;23.408;2023-06-14T10:41:04;94727.13;;;27.90;50.74
19761;BME280;10039;42.632;23.408;2023-06-14T10:43:29;94732.28;;;28.06;49.71
19761;BME280;10039;42.632;23.408;2023-06-14T10:46:14;94728.66;;;28.24;49.16
19761;BME280;10039;42.632;23.408;2023-06-14T10:48:41;94714.50;;;28.20;48.89
19761;BME280;10039;42.632;23.408;2023-06-14T10:51:15;94717.31;;;28.54;49.57
19761;BME280;10039;42.632;23.408;2023-06-14T10:53:45;94701.06;;;27.70;47.68
19761;BME280;10039;42.632;23.408;2023-06-14T10:56:32;94704.09;;;27.80;48.75
19761;BME280;10039;42.632;23.408;2023-06-14T10:58:58;94710.56;;;27.69;48.72
19761;BME280;10039;42.632;23.408;2023-06-14T11:01:36;94704.00;;;27.72;48.03
19761;BME280;10039;42.632;23.408;2023-06-14T11:04:11;94692.63;;;27.68;48.60
19761;BME280;10039;42.632;23.408;2023-06-14T11:06:48;94698.44;;;28.37;47.59
19761;BME280;10039;42.632;23.408;2023-06-14T11:11:56;94667.91;;;27.55;48.87
19761;BME280;10039;42.632;23.408;2023-06-14T11:14:22;94697.44;;;28.14;48.09
19761;BME280;10039;42.632;23.408;2023-06-14T11:16:49;94679.75;;;28.23;47.94
19761;BME280;10039;42.632;23.408;2023-06-14T11:19:14;94694.78;;;28.75;48.41
19761;BME280;10039;42.632;23.408;2023-06-14T11:21:42;94686.91;;;28.72;46.98
19761;BME280;10039;42.632;23.408;2023-06-14T11:24:11;94689.59;;;28.85;47.46
19761;BME280;10039;42.632;23.408;2023-06-14T11:26:38;94693.50;;;28.10;48.20
19761;BME280;10039;42.632;23.408;2023-06-14T11:29:03;94680.28;;;28.34;48.17
19761;BME280;10039;42.632;23.408;2023-06-14T11:31:29;94668.47;;;28.80;47.80
19761;BME280;10039;42.632;23.408;2023-06-14T11:33:55;94682.81;;;28.32;48.04
19761;BME280;10039;42.632;23.408;2023-06-14T11:36:22;94669.97;;;28.14;48.55
19761;BME280;10039;42.632;23.408;2023-06-14T11:38:48;94674.00;;;28.00;47.37
19761;BME280;10039;42.632;23.408;2023-06-14T11:41:13;94687.75;;;27.74;48.47
19761;BME280;10039;42.632;23.408;2023-06-14T11:43:40;94685.53;;;27.86;48.87
19761;BME280;10039;42.632;23.408;2023-06-14T11:46:12;94665.97;;;28.02;48.06
19761;BME280;10039;42.632;23.408;2023-06-14T11:48:41;94663.28;;;28.23;48.12
19761;BME280;10039;42.632;23.408;2023-06-14T11:51:07;94639.38;;;27.97;46.26
19761;BME280;10039;42.632;23.408;2023-06-14T11:53:33;94658.06;;;28.45;47.35
19761;BME280;10039;42.632;23.408;2023-06-14T11:55:59;94657.38;;;28.52;46.92
19761;BME280;10039;42.632;23.408;2023-06-14T11:58:25;94648.53;;;29.07;47.26
19761;BME280;10039;42.632;23.408;2023-06-14T12:00:52;94622.47;;;29.29;46.33
19761;BME280;10039;42.632;23.408;2023-06-14T12:03:25;94629.28;;;29.35;46.08
19761;BME280;10039;42.632;23.408;2023-06-14T12:06:03;94591.94;;;29.12;44.56
19761;BME280;10039;42.632;23.408;2023-06-14T12:08:33;94620.13;;;29.33;45.40
19761;BME280;10039;42.632;23.408;2023-06-14T12:11:14;94625.78;;;28.79;45.23
19761;BME280;10039;42.632;23.408;2023-06-14T12:13:41;94622.56;;;28.88;45.84
19761;BME280;10039;42.632;23.408;2023-06-14T12:16:11;94620.53;;;29.09;45.93
19761;BME280;10039;42.632;23.408;2023-06-14T12:18:39;94627.31;;;29.08;45.13
19761;BME280;10039;42.632;23.408;2023-06-14T12:21:05;94629.13;;;28.85;45.56
19761;BME280;10039;42.632;23.408;2023-06-14T12:23:45;94629.03;;;28.57;46.27
19761;BME280;10039;42.632;23.408;2023-06-14T12:26:15;94614.56;;;28.57;46.50
19761;BME280;10039;42.632;23.408;2023-06-14T12:28:42;94610.63;;;28.65;46.78
19761;BME280;10039;42.632;23.408;2023-06-14T12:31:12;94608.88;;;28.75;45.56
19761;BME280;10039;42.632;23.408;2023-06-14T12:33:41;94627.16;;;28.52;45.63
19761;BME280;10039;42.632;23.408;2023-06-14T12:36:07;94610.69;;;28.32;46.87
19761;BME280;10039;42.632;23.408;2023-06-14T12:38:34;94604.41;;;28.44;44.84
19761;BME280;10039;42.632;23.408;2023-06-14T12:41:00;94604.84;;;28.35;45.32
19761;BME280;10039;42.632;23.408;2023-06-14T12:43:25;94581.47;;;28.42;46.51
19761;BME280;10039;42.632;23.408;2023-06-14T12:45:51;94598.91;;;28.64;45.27
19761;BME280;10039;42.632;23.408;2023-06-14T12:48:17;94580.75;;;28.08;45.65
19761;BME280;10039;42.632;23.408;2023-06-14T12:50:42;94593.94;;;27.50;47.93
19761;BME280;10039;42.632;23.408;2023-06-14T12:53:08;94594.50;;;27.36;50.49
19761;BME280;10039;42.632;23.408;2023-06-14T12:55:33;94605.09;;;26.87;52.36
19761;BME280;10039;42.632;23.408;2023-06-14T12:57:59;94605.34;;;26.45;56.40